Search METAR Data

METAR Data for ENOV:

ENOV 241420Z VRB02KT 9999 VCSH FEW011 SCT022TCU BKN180 04/M01 Q1009 RMK WIND RWY24 05003KT WIND 2090FT 07003KT